createdAt,value
2022-08-12T00:01:11.727Z,5.03
2022-08-12T00:03:57.245Z,4.73
2022-08-12T00:06:43.882Z,5.10
2022-08-12T00:09:29.721Z,5.13
2022-08-12T00:12:15.514Z,5.17
2022-08-12T00:15:04.052Z,5.40
2022-08-12T00:17:50.005Z,5.30
2022-08-12T00:20:35.377Z,5.57
2022-08-12T00:23:21.357Z,4.97
2022-08-12T00:26:21.402Z,6.13
2022-08-12T00:29:09.541Z,5.80
2022-08-12T00:31:55.345Z,5.53
2022-08-12T00:34:40.873Z,5.67
2022-08-12T00:37:27.758Z,5.30
2022-08-12T00:40:14.461Z,4.50
2022-08-12T00:42:42.586Z,4.80
2022-08-12T00:45:11.645Z,5.20
2022-08-12T00:47:39.619Z,5.30
2022-08-12T00:50:07.883Z,5.67
2022-08-12T00:52:36.150Z,5.47
2022-08-12T00:55:05.420Z,4.80
2022-08-12T00:57:37.396Z,5.17
2022-08-12T01:00:21.798Z,5.53
2022-08-12T01:02:57.512Z,5.57
2022-08-12T01:05:44.459Z,6.00
2022-08-12T01:08:30.286Z,4.83
2022-08-12T01:11:16.087Z,5.47
2022-08-12T01:13:50.496Z,5.33
2022-08-12T01:16:22.623Z,5.70
2022-08-12T01:18:55.081Z,6.00
2022-08-12T01:21:27.428Z,5.90
2022-08-12T01:24:52.119Z,5.97
2022-08-12T01:27:20.085Z,5.77
2022-08-12T01:29:49.310Z,5.20
2022-08-12T01:32:19.229Z,6.23
2022-08-12T01:35:12.423Z,5.77
2022-08-12T01:38:06.269Z,5.57
2022-08-12T01:40:40.427Z,5.50
2022-08-12T01:43:21.204Z,5.40
2022-08-12T01:46:07.773Z,5.87
2022-08-12T01:49:02.950Z,4.80
2022-08-12T01:52:15.994Z,4.60
2022-08-12T01:54:42.059Z,4.87
2022-08-12T01:57:10.897Z,4.40
2022-08-12T01:59:46.893Z,5.00
2022-08-12T02:02:36.871Z,5.30
2022-08-12T02:05:40.897Z,4.50
2022-08-12T02:09:01.644Z,4.57
2022-08-12T02:11:34.755Z,4.30
2022-08-12T02:14:37.329Z,6.13
2022-08-12T02:17:55.478Z,4.83
2022-08-12T02:20:51.919Z,3.97
2022-08-12T02:23:26.903Z,5.60
2022-08-12T02:25:59.572Z,5.00
2022-08-12T02:28:27.938Z,4.93
2022-08-12T02:30:57.281Z,5.70
2022-08-12T02:33:25.402Z,4.27
2022-08-12T02:35:52.933Z,4.80
2022-08-12T02:38:21.804Z,5.50
2022-08-12T02:40:54.863Z,4.97
2022-08-12T02:43:46.461Z,5.03
2022-08-12T02:46:16.290Z,4.20
2022-08-12T02:49:31.308Z,4.20
2022-08-12T02:52:00.249Z,5.37
2022-08-12T02:54:27.727Z,5.13
2022-08-12T02:56:55.352Z,4.70
2022-08-12T02:59:25.038Z,5.30
2022-08-12T03:01:55.131Z,5.77
2022-08-12T03:04:53.907Z,6.17
2022-08-12T03:07:55.752Z,5.30
2022-08-12T03:10:36.531Z,5.83
2022-08-12T03:13:07.286Z,7.07
2022-08-12T03:15:35.787Z,6.33
2022-08-12T03:18:26.418Z,6.67
2022-08-12T03:20:57.088Z,5.60
2022-08-12T03:23:30.143Z,5.17
2022-08-12T03:26:01.829Z,5.00
2022-08-12T03:28:51.245Z,4.70
2022-08-12T03:31:25.704Z,4.90
2022-08-12T03:34:02.198Z,4.27
2022-08-12T03:36:36.028Z,5.00
2022-08-12T03:39:16.559Z,5.03
2022-08-12T03:42:22.502Z,4.80
2022-08-12T03:45:42.069Z,5.30
2022-08-12T03:48:38.713Z,4.80
2022-08-12T03:51:24.959Z,5.10
2022-08-12T03:54:11.745Z,4.13
2022-08-12T03:56:58.758Z,5.90
2022-08-12T03:59:44.077Z,5.20
2022-08-12T04:02:15.517Z,4.60
2022-08-12T04:04:45.261Z,5.00
2022-08-12T04:07:14.052Z,5.60
2022-08-12T04:09:44.462Z,6.40
2022-08-12T04:12:32.881Z,5.07
2022-08-12T04:15:01.826Z,6.07
2022-08-12T04:17:29.123Z,6.00
2022-08-12T04:19:57.917Z,6.37
2022-08-12T04:22:29.674Z,6.10
2022-08-12T04:25:01.233Z,6.60
2022-08-12T04:27:31.478Z,6.23
2022-08-12T04:30:17.042Z,5.93
2022-08-12T04:32:49.943Z,5.60
2022-08-12T04:35:17.189Z,7.20
2022-08-12T04:37:58.486Z,6.53
2022-08-12T04:40:31.187Z,6.90
2022-08-12T04:43:01.233Z,6.90
2022-08-12T04:45:29.154Z,6.03
2022-08-12T04:47:56.822Z,6.43
2022-08-12T04:50:35.353Z,6.87
2022-08-12T04:53:08.974Z,6.60
2022-08-12T04:55:38.833Z,7.40
2022-08-12T04:58:10.093Z,7.83
2022-08-12T05:00:38.162Z,8.40
2022-08-12T05:03:07.422Z,7.40
2022-08-12T05:05:37.821Z,8.67
2022-08-12T05:08:11.287Z,8.37
2022-08-12T05:10:38.178Z,8.20
2022-08-12T05:13:09.521Z,8.63
2022-08-12T05:16:05.179Z,9.27
2022-08-12T05:18:25.750Z,8.67
2022-08-12T05:20:58.759Z,8.97
2022-08-12T05:23:25.658Z,7.10
2022-08-12T05:25:56.390Z,6.40
2022-08-12T05:28:26.848Z,7.37
2022-08-12T05:30:55.067Z,6.90
2022-08-12T05:33:26.469Z,7.53
2022-08-12T05:35:53.426Z,6.73
2022-08-12T05:38:39.326Z,6.43
2022-08-12T05:41:19.111Z,6.30
2022-08-12T05:43:48.371Z,6.27
2022-08-12T05:46:19.131Z,6.03
2022-08-12T05:48:46.570Z,6.70
2022-08-12T05:51:13.658Z,7.17
2022-08-12T05:53:41.602Z,5.53
2022-08-12T05:56:24.831Z,6.30
2022-08-12T05:58:53.606Z,5.70
2022-08-12T06:02:09.424Z,5.70
2022-08-12T06:04:09.461Z,5.60
2022-08-12T06:06:39.784Z,4.90
2022-08-12T06:09:09.998Z,5.07
2022-08-12T06:11:38.073Z,4.67
2022-08-12T06:14:11.682Z,4.50
2022-08-12T06:16:39.204Z,6.60
2022-08-12T06:19:08.137Z,5.77
2022-08-12T06:21:37.632Z,6.10
2022-08-12T06:24:06.109Z,5.17
2022-08-12T06:26:34.488Z,5.47
2022-08-12T06:29:01.608Z,5.77
2022-08-12T06:31:28.514Z,4.77
2022-08-12T06:34:00.895Z,5.30
2022-08-12T06:36:42.956Z,4.43
2022-08-12T06:39:14.836Z,5.40
2022-08-12T06:42:30.680Z,4.60
2022-08-12T06:44:50.339Z,5.07
2022-08-12T06:47:18.551Z,4.43
2022-08-12T06:49:45.460Z,4.80
2022-08-12T06:52:12.364Z,4.20
2022-08-12T06:54:41.359Z,4.40
2022-08-12T06:58:06.070Z,4.40
2022-08-12T06:59:55.781Z,4.00
2022-08-12T07:02:22.821Z,4.03
2022-08-12T07:04:50.024Z,5.00
2022-08-12T07:07:18.552Z,5.27
2022-08-12T07:10:06.982Z,4.10
2022-08-12T07:12:32.492Z,4.10
2022-08-12T07:15:01.708Z,4.10
2022-08-12T07:17:35.652Z,5.07
2022-08-12T07:20:11.653Z,4.00
2022-08-12T07:22:58.242Z,5.17
2022-08-12T07:25:37.457Z,4.43
2022-08-12T07:28:16.434Z,4.60
2022-08-12T07:30:45.834Z,5.00
2022-08-12T07:33:13.547Z,4.93
2022-08-12T07:35:45.433Z,3.90
2022-08-12T07:38:33.435Z,4.57
2022-08-12T07:41:15.424Z,5.90
2022-08-12T07:43:53.820Z,5.23
2022-08-12T07:46:28.958Z,4.00
2022-08-12T07:48:59.562Z,4.17
2022-08-12T07:51:27.540Z,3.60
2022-08-12T07:54:00.986Z,3.97
2022-08-12T07:56:31.613Z,4.93
2022-08-12T07:58:59.238Z,4.23
2022-08-12T08:01:26.994Z,4.23
2022-08-12T08:04:18.417Z,4.30
2022-08-12T08:06:46.802Z,4.20
2022-08-12T08:09:16.171Z,3.80
2022-08-12T08:12:01.675Z,4.27
2022-08-12T08:14:29.329Z,4.07
2022-08-12T08:16:59.783Z,4.13
2022-08-12T08:19:29.109Z,3.10
2022-08-12T08:21:58.705Z,3.00
2022-08-12T08:24:28.051Z,3.33
2022-08-12T08:26:58.404Z,3.53
2022-08-12T08:29:25.819Z,3.40
2022-08-12T08:31:58.652Z,3.13
2022-08-12T08:34:53.720Z,4.00
2022-08-12T08:37:20.692Z,3.13
2022-08-12T08:39:47.665Z,2.90
2022-08-12T08:42:33.134Z,2.90
2022-08-12T08:45:01.304Z,2.93
2022-08-12T08:47:28.226Z,3.03
2022-08-12T08:50:00.935Z,3.57
2022-08-12T08:52:39.374Z,3.03
2022-08-12T08:55:15.434Z,4.10
2022-08-12T08:57:49.405Z,3.67
2022-08-12T09:00:19.712Z,3.40
2022-08-12T09:02:49.329Z,2.90
2022-08-12T09:05:26.399Z,2.87
2022-08-12T09:08:08.771Z,2.67
2022-08-12T09:10:44.863Z,2.53
2022-08-12T09:13:29.418Z,2.83
2022-08-12T09:16:16.924Z,2.57
2022-08-12T09:18:48.324Z,3.03
2022-08-12T09:21:23.230Z,2.80
2022-08-12T09:24:01.255Z,2.73
2022-08-12T09:26:38.101Z,2.47
2022-08-12T09:29:15.313Z,2.47
2022-08-12T09:32:04.293Z,2.73
2022-08-12T09:34:33.845Z,2.63
2022-08-12T09:37:18.925Z,2.60
2022-08-12T09:40:04.171Z,2.40
2022-08-12T09:43:15.087Z,2.50
2022-08-12T09:46:11.004Z,1.90
2022-08-12T09:48:35.093Z,2.27
2022-08-12T09:51:16.765Z,2.10
2022-08-12T09:53:50.704Z,2.40
2022-08-12T09:56:59.368Z,2.10
2022-08-12T10:00:12.928Z,2.57
2022-08-12T10:02:44.740Z,1.90
2022-08-12T10:05:00.468Z,2.00
2022-08-12T10:07:40.620Z,2.20
2022-08-12T10:10:22.783Z,2.33
2022-08-12T10:13:13.586Z,2.00
2022-08-12T10:16:01.482Z,2.00
2022-08-12T10:18:32.720Z,2.77
2022-08-12T10:21:10.476Z,2.33
2022-08-12T10:23:40.780Z,1.80
2022-08-12T10:26:39.003Z,2.20
2022-08-12T10:30:38.360Z,2.17
2022-08-12T10:32:56.329Z,1.97
2022-08-12T10:35:09.369Z,2.50
2022-08-12T10:38:33.437Z,2.17
2022-08-12T10:40:28.589Z,2.00
2022-08-12T10:43:17.118Z,2.73
2022-08-12T10:45:46.056Z,2.20
2022-08-12T10:48:21.088Z,2.00
2022-08-12T10:51:01.778Z,2.20
2022-08-12T10:53:45.684Z,2.43
2022-08-12T10:56:17.909Z,2.13
2022-08-12T10:58:47.178Z,1.83
2022-08-12T11:01:49.912Z,1.77
2022-08-12T11:04:27.576Z,1.83
2022-08-12T11:07:09.655Z,2.40
2022-08-12T11:10:00.816Z,1.80
2022-08-12T11:12:54.740Z,1.70
2022-08-12T11:15:33.031Z,2.37
2022-08-12T11:18:12.029Z,2.10
2022-08-12T11:20:45.117Z,1.77
2022-08-12T11:23:25.049Z,2.03
2022-08-12T11:26:05.047Z,2.03
2022-08-12T11:28:37.110Z,2.00
2022-08-12T11:31:07.121Z,1.90
2022-08-12T11:34:05.858Z,2.17
2022-08-12T11:36:26.160Z,1.83
2022-08-12T11:38:54.505Z,1.63
2022-08-12T11:41:31.497Z,2.30
2022-08-12T11:44:30.778Z,1.73
2022-08-12T11:46:50.881Z,1.80
2022-08-12T11:49:20.495Z,1.60
2022-08-12T11:52:01.780Z,2.17
2022-08-12T11:54:29.873Z,1.60
2022-08-12T11:57:02.492Z,2.10
2022-08-12T12:02:20.431Z,1.77
2022-08-12T12:04:52.921Z,1.87
2022-08-12T12:08:36.683Z,1.93
2022-08-12T12:10:16.899Z,2.90
2022-08-12T12:12:50.157Z,1.60
2022-08-12T12:15:24.837Z,1.93
2022-08-12T12:17:55.780Z,2.33
2022-08-12T12:20:26.050Z,2.57
2022-08-12T12:22:54.750Z,2.20
2022-08-12T12:25:21.690Z,1.60
2022-08-12T12:28:08.579Z,2.40
2022-08-12T12:30:55.467Z,1.80
2022-08-12T12:33:22.410Z,1.87
2022-08-12T12:36:06.397Z,1.70
2022-08-12T12:38:36.270Z,1.63
2022-08-12T12:41:14.638Z,2.10
2022-08-12T12:43:56.571Z,1.80
2022-08-12T12:46:30.934Z,1.37
2022-08-12T12:48:57.847Z,1.63
2022-08-12T12:52:13.876Z,1.80
2022-08-12T12:54:12.520Z,1.70
2022-08-12T12:56:42.816Z,1.90
2022-08-12T12:59:55.474Z,2.07
2022-08-12T13:02:08.093Z,1.53
2022-08-12T13:04:37.357Z,1.70
2022-08-12T13:07:05.947Z,2.10
2022-08-12T13:09:36.412Z,1.70
2022-08-12T13:12:08.795Z,2.27
2022-08-12T13:14:39.928Z,2.40
2022-08-12T13:17:11.237Z,2.10
2022-08-12T13:19:45.341Z,1.90
2022-08-12T13:22:19.647Z,2.10
2022-08-12T13:24:55.994Z,1.90
2022-08-12T13:27:46.208Z,1.53
2022-08-12T13:30:23.779Z,2.20
2022-08-12T13:33:00.426Z,1.90
2022-08-12T13:36:05.931Z,1.73
2022-08-12T13:38:41.164Z,2.37
2022-08-12T13:41:31.281Z,2.33
2022-08-12T13:44:04.404Z,1.70
2022-08-12T13:46:31.930Z,2.37
2022-08-12T13:48:58.829Z,2.00
2022-08-12T13:51:26.063Z,1.70
2022-08-12T13:54:11.547Z,2.00
2022-08-12T13:56:38.999Z,1.80
2022-08-12T13:59:09.434Z,3.20
2022-08-12T14:01:40.679Z,2.00
2022-08-12T14:04:11.590Z,1.80
2022-08-12T14:06:40.440Z,2.40
2022-08-12T14:09:17.365Z,1.80
2022-08-12T14:11:59.163Z,2.20
2022-08-12T14:14:31.106Z,1.80
2022-08-12T14:17:02.342Z,1.70
2022-08-12T14:19:35.803Z,1.93
2022-08-12T14:22:06.713Z,1.90
2022-08-12T14:24:40.835Z,2.03
2022-08-12T14:27:10.134Z,1.80
2022-08-12T14:30:05.165Z,1.90
2022-08-12T14:32:34.251Z,1.70
2022-08-12T14:35:01.267Z,2.37
2022-08-12T14:37:55.538Z,1.70
2022-08-12T14:40:18.259Z,1.70
2022-08-12T14:42:46.966Z,1.70
2022-08-12T14:45:14.140Z,2.20
2022-08-12T14:47:53.589Z,1.67
2022-08-12T14:50:37.455Z,2.27
2022-08-12T14:54:55.959Z,1.83
2022-08-12T14:59:23.197Z,2.07
2022-08-12T15:01:51.102Z,2.03
2022-08-12T15:04:28.580Z,1.87
2022-08-12T15:06:56.407Z,1.80
2022-08-12T15:09:29.321Z,1.90
2022-08-12T15:12:03.193Z,1.90
2022-08-12T15:14:30.693Z,1.90
2022-08-12T15:17:00.037Z,2.10
2022-08-12T15:20:31.328Z,1.80
2022-08-12T15:22:39.458Z,1.87
2022-08-12T15:25:07.700Z,1.90
2022-08-12T15:28:04.482Z,1.60
2022-08-12T15:30:31.067Z,2.20
2022-08-12T15:32:59.044Z,2.73
2022-08-12T15:35:31.115Z,1.80
2022-08-12T15:38:11.416Z,2.17
2022-08-12T15:40:46.843Z,2.20
2022-08-12T15:43:51.381Z,1.93
2022-08-12T15:46:06.155Z,2.20
2022-08-12T15:48:33.347Z,2.67
2022-08-12T15:51:05.327Z,2.10
2022-08-12T15:53:54.667Z,1.90
2022-08-12T15:56:29.052Z,1.93
2022-08-12T15:58:58.934Z,2.20
2022-08-12T16:01:35.239Z,2.40
2022-08-12T16:04:05.369Z,2.03
2022-08-12T16:09:45.302Z,2.40
2022-08-12T16:12:11.210Z,2.67
2022-08-12T16:14:39.704Z,3.27
2022-08-12T16:17:09.126Z,3.43
2022-08-12T16:20:03.636Z,2.67
2022-08-12T16:22:29.810Z,2.50
2022-08-12T16:24:57.097Z,2.70
2022-08-12T16:27:25.447Z,2.80
2022-08-12T16:29:57.229Z,2.57
2022-08-12T16:32:31.660Z,2.40
2022-08-12T16:34:59.918Z,2.70
2022-08-12T16:37:32.487Z,2.50
2022-08-12T16:40:06.319Z,2.73
2022-08-12T16:42:39.454Z,2.03
2022-08-12T16:45:15.204Z,2.67
2022-08-12T16:47:58.533Z,2.27
2022-08-12T16:50:30.861Z,2.30
2022-08-12T16:53:02.481Z,2.40
2022-08-12T16:55:41.957Z,2.83
2022-08-12T16:58:28.044Z,2.23
2022-08-12T17:01:02.109Z,2.50
2022-08-12T17:03:32.587Z,2.67
2022-08-12T17:06:06.407Z,2.30
2022-08-12T17:08:33.877Z,2.43
2022-08-12T17:11:00.795Z,2.23
2022-08-12T17:13:29.154Z,2.47
2022-08-12T17:16:06.394Z,1.90
2022-08-12T17:18:45.500Z,1.83
2022-08-12T17:21:40.569Z,2.10
2022-08-12T17:24:16.403Z,3.03
2022-08-12T17:26:49.181Z,2.70
2022-08-12T17:29:24.027Z,2.13
2022-08-12T17:32:08.874Z,2.87
2022-08-12T17:34:55.161Z,2.30
2022-08-12T17:37:22.162Z,2.40
2022-08-12T17:40:12.667Z,2.50
2022-08-12T17:42:38.413Z,2.80
2022-08-12T17:45:17.030Z,2.80
2022-08-12T17:48:01.131Z,2.70
2022-08-12T17:50:36.853Z,2.30
2022-08-12T17:53:08.174Z,2.30
2022-08-12T17:55:47.417Z,2.70
2022-08-12T17:58:35.571Z,2.50
2022-08-12T18:01:11.024Z,2.90
2022-08-12T18:04:05.449Z,2.80
2022-08-12T18:06:27.856Z,2.50
2022-08-12T18:08:58.855Z,3.10
2022-08-12T18:12:04.383Z,3.27
2022-08-12T18:14:33.048Z,3.10
2022-08-12T18:17:08.183Z,2.53
2022-08-12T18:20:06.244Z,2.70
2022-08-12T18:22:31.760Z,2.60
2022-08-12T18:25:06.837Z,3.40
2022-08-12T18:28:15.721Z,2.80
2022-08-12T18:30:45.292Z,2.60
2022-08-12T18:33:23.766Z,2.70
2022-08-12T18:35:53.695Z,2.70
2022-08-12T18:38:25.119Z,3.10
2022-08-12T18:41:20.717Z,2.30
2022-08-12T18:43:59.852Z,3.27
2022-08-12T18:46:54.284Z,3.47
2022-08-12T18:49:38.042Z,2.77
2022-08-12T18:52:08.000Z,2.50
2022-08-12T18:54:49.323Z,2.50
2022-08-12T18:58:05.843Z,2.50
2022-08-12T19:00:21.526Z,3.00
2022-08-12T19:02:51.875Z,3.40
2022-08-12T19:05:20.768Z,2.80
2022-08-12T19:08:00.745Z,2.77
2022-08-12T19:10:31.114Z,2.80
2022-08-12T19:13:23.048Z,2.67
2022-08-12T19:15:57.935Z,2.57
2022-08-12T19:18:30.166Z,2.93
2022-08-12T19:21:06.537Z,2.83
2022-08-12T19:23:39.548Z,2.80
2022-08-12T19:26:12.198Z,3.00
2022-08-12T19:28:39.626Z,3.00
2022-08-12T19:31:56.063Z,3.37
2022-08-12T19:38:04.271Z,3.00
2022-08-12T19:40:32.293Z,3.00
2022-08-12T19:43:19.945Z,2.97
2022-08-12T19:45:54.315Z,3.00
2022-08-12T19:48:30.308Z,3.10
2022-08-12T19:50:57.887Z,3.03
2022-08-12T19:53:27.670Z,3.93
2022-08-12T19:55:57.417Z,2.60
2022-08-12T19:58:25.356Z,2.77
2022-08-12T20:00:54.964Z,2.97
2022-08-12T20:03:39.380Z,3.30
2022-08-12T20:06:15.631Z,2.57
2022-08-12T20:08:55.886Z,2.57
2022-08-12T20:12:14.724Z,2.90
2022-08-12T20:14:19.032Z,3.00
2022-08-12T20:16:54.466Z,2.77
2022-08-12T20:20:16.338Z,2.50
2022-08-12T20:22:24.531Z,3.33
2022-08-12T20:24:58.378Z,4.07
2022-08-12T20:28:03.317Z,3.50
2022-08-12T20:30:20.239Z,2.87
2022-08-12T20:32:58.623Z,2.80
2022-08-12T20:36:06.046Z,3.53
2022-08-12T20:38:26.198Z,2.93
2022-08-12T20:40:55.802Z,3.43
2022-08-12T20:43:24.336Z,3.70
2022-08-12T20:45:57.174Z,3.00
2022-08-12T20:48:26.210Z,3.40
2022-08-12T20:50:57.595Z,3.33
2022-08-12T20:53:26.549Z,3.07
2022-08-12T20:56:00.428Z,3.43
2022-08-12T20:58:28.508Z,3.77
2022-08-12T21:00:59.215Z,3.07
2022-08-12T21:03:52.719Z,3.40
2022-08-12T21:06:43.974Z,3.20
2022-08-12T21:09:10.955Z,3.20
2022-08-12T21:11:37.890Z,4.50
2022-08-12T21:14:05.994Z,3.20
2022-08-12T21:16:39.078Z,3.40
2022-08-12T21:19:08.176Z,3.53
2022-08-12T21:21:50.177Z,3.50
2022-08-12T21:24:17.793Z,3.20
2022-08-12T21:26:53.651Z,3.47
2022-08-12T21:29:21.906Z,3.90
2022-08-12T21:32:40.817Z,3.23
2022-08-12T21:34:36.505Z,4.00
2022-08-12T21:37:26.968Z,4.00
2022-08-12T21:39:56.402Z,3.53
2022-08-12T21:42:27.804Z,3.60
2022-08-12T21:45:48.078Z,3.87
2022-08-12T21:47:41.940Z,4.10
2022-08-12T21:50:09.227Z,4.43
2022-08-12T21:52:48.858Z,5.57
2022-08-12T21:55:17.991Z,4.83
2022-08-12T21:57:54.046Z,5.57
2022-08-12T22:00:33.369Z,5.67
2022-08-12T22:04:03.466Z,6.80
2022-08-12T22:06:31.048Z,8.57
2022-08-12T22:09:16.670Z,9.40
2022-08-12T22:11:56.253Z,7.77
2022-08-12T22:14:24.263Z,6.50
2022-08-12T22:16:54.294Z,7.40
2022-08-12T22:19:22.702Z,6.90
2022-08-12T22:21:54.937Z,6.13
2022-08-12T22:24:26.997Z,6.33
2022-08-12T22:27:31.596Z,5.50
2022-08-12T22:30:21.660Z,5.43
2022-08-12T22:32:50.556Z,4.70
2022-08-12T22:35:56.131Z,4.27
2022-08-12T22:38:25.443Z,4.40
2022-08-12T22:40:58.424Z,5.07
2022-08-12T22:43:59.258Z,3.67
2022-08-12T22:46:33.295Z,4.23
2022-08-12T22:49:01.090Z,4.10
2022-08-12T22:51:57.584Z,4.10
2022-08-12T22:54:36.203Z,4.43
2022-08-12T22:57:05.560Z,4.63
2022-08-12T22:59:51.273Z,4.43
2022-08-12T23:02:30.703Z,3.80
2022-08-12T23:04:58.392Z,5.03
2022-08-12T23:07:25.326Z,3.87
2022-08-12T23:09:52.432Z,3.87
2022-08-12T23:12:41.114Z,3.90
2022-08-12T23:15:14.434Z,3.80
2022-08-12T23:17:41.883Z,4.20
2022-08-12T23:20:11.311Z,3.77
2022-08-12T23:22:40.001Z,3.90
2022-08-12T23:25:19.061Z,4.40
2022-08-12T23:28:29.947Z,4.47
2022-08-12T23:31:04.073Z,4.23
2022-08-12T23:34:01.493Z,3.80
2022-08-12T23:36:39.058Z,4.10
2022-08-12T23:40:08.331Z,4.43
2022-08-12T23:42:16.452Z,4.20
2022-08-12T23:44:43.920Z,3.90
2022-08-12T23:47:12.622Z,3.93
2022-08-12T23:49:58.128Z,4.07
2022-08-12T23:52:27.682Z,3.90
2022-08-12T23:55:23.951Z,4.70
2022-08-12T23:58:17.839Z,3.93
